Carl, Iowa
Current Conditions -  °F | °C
As of 5:55 PM on Saturday 25 Oct 2014 (Local Time) from KCSQ Reporting Station
Clear Clear  
Wind Chill: 68°   Ceiling: Unl
Heat Index: 68°   Visibility: 10mi
Dew Point: 43°   Wind: 5mph
Humidity: 40%   Direction: 70°ENE
Pressure: 30.06"   Gusts: NA
Location:  41.0285°N, 94.7568°W
Report Text: KCSQ 252255Z AUTO 07004KT 10SM CLR 20/06 A3006 RMK AO2
Loading
Personal Weather Stations






























Interactive Weather Map
Tropical Storm Tracking
New forecast layout! Learn more

10-Day Weather Forecast

Advertisements
Track Severe Weather on mobile